createdAt,value
2018-04-13T00:01:20.623Z,6.30
2018-04-13T00:03:47.026Z,6.70
2018-04-13T00:06:13.572Z,6.60
2018-04-13T00:08:40.128Z,6.30
2018-04-13T00:11:06.722Z,5.93
2018-04-13T00:13:33.157Z,7.20
2018-04-13T00:15:59.639Z,6.50
2018-04-13T00:18:26.043Z,6.93
2018-04-13T00:20:52.440Z,6.20
2018-04-13T00:23:18.877Z,7.20
2018-04-13T00:25:46.343Z,7.17
2018-04-13T00:28:12.775Z,6.50
2018-04-13T00:30:39.173Z,6.23
2018-04-13T00:33:05.559Z,6.17
2018-04-13T00:35:32.035Z,6.57
2018-04-13T00:37:58.458Z,6.20
2018-04-13T00:40:24.864Z,6.23
2018-04-13T00:42:51.280Z,5.80
2018-04-13T00:45:17.871Z,6.53
2018-04-13T00:47:44.345Z,5.90
2018-04-13T00:50:10.757Z,6.67
2018-04-13T00:52:37.203Z,5.30
2018-04-13T00:55:03.719Z,6.53
2018-04-13T00:57:30.240Z,6.47
2018-04-13T00:59:56.711Z,6.87
2018-04-13T01:02:23.115Z,7.00
2018-04-13T01:04:49.639Z,7.00
2018-04-13T01:07:16.027Z,6.70
2018-04-13T01:09:42.421Z,6.93
2018-04-13T01:12:08.906Z,7.17
2018-04-13T01:14:35.363Z,6.10
2018-04-13T01:17:01.836Z,7.07
2018-04-13T01:19:28.243Z,6.73
2018-04-13T01:21:54.742Z,6.47
2018-04-13T01:24:21.194Z,6.63
2018-04-13T01:26:47.725Z,7.00
2018-04-13T01:29:14.173Z,8.17
2018-04-13T01:31:40.593Z,8.00
2018-04-13T01:34:07.009Z,6.47
2018-04-13T01:36:33.490Z,7.13
2018-04-13T01:38:59.903Z,7.43
2018-04-13T01:41:26.389Z,7.03
2018-04-13T01:43:52.811Z,6.77
2018-04-13T01:46:19.324Z,7.93
2018-04-13T01:48:45.718Z,8.30
2018-04-13T01:51:12.143Z,7.50
2018-04-13T01:53:38.572Z,7.73
2018-04-13T01:56:05.034Z,7.83
2018-04-13T01:58:31.578Z,8.47
2018-04-13T02:00:57.986Z,7.60
2018-04-13T02:03:24.367Z,7.30
2018-04-13T02:05:50.959Z,7.50
2018-04-13T02:08:17.374Z,6.93
2018-04-13T02:10:43.774Z,7.40
2018-04-13T02:13:10.228Z,8.10
2018-04-13T02:15:36.674Z,7.43
2018-04-13T02:18:03.078Z,6.43
2018-04-13T02:20:29.543Z,6.87
2018-04-13T02:22:55.879Z,6.97
2018-04-13T02:25:22.270Z,7.20
2018-04-13T02:27:48.758Z,7.23
2018-04-13T02:30:15.091Z,6.70
2018-04-13T02:32:41.421Z,8.37
2018-04-13T02:35:07.798Z,6.90
2018-04-13T02:37:34.135Z,7.43
2018-04-13T02:40:00.495Z,7.00
2018-04-13T02:42:26.925Z,7.30
2018-04-13T02:44:54.420Z,6.90
2018-04-13T02:47:20.727Z,7.43
2018-04-13T02:49:47.112Z,7.33
2018-04-13T02:52:13.484Z,6.80
2018-04-13T02:54:39.803Z,6.53
2018-04-13T02:57:07.243Z,7.13
2018-04-13T02:59:33.552Z,6.77
2018-04-13T03:01:59.891Z,7.60
2018-04-13T03:04:26.282Z,7.67
2018-04-13T03:06:52.653Z,6.70
2018-04-13T03:09:19.010Z,8.77
2018-04-13T03:11:45.374Z,7.70
2018-04-13T03:14:11.667Z,7.87
2018-04-13T03:16:39.217Z,7.40
2018-04-13T03:19:05.552Z,7.93
2018-04-13T03:21:32.033Z,7.83
2018-04-13T03:23:58.355Z,6.83
2018-04-13T03:26:24.753Z,7.23
2018-04-13T03:28:51.120Z,7.27
2018-04-13T03:31:17.483Z,7.40
2018-04-13T03:33:43.863Z,7.33
2018-04-13T03:36:10.326Z,7.77
2018-04-13T03:38:36.736Z,7.07
2018-04-13T03:41:03.111Z,7.40
2018-04-13T03:43:29.537Z,7.07
2018-04-13T03:45:56.014Z,6.63
2018-04-13T03:48:22.349Z,7.53
2018-04-13T03:50:48.778Z,7.03
2018-04-13T03:53:15.089Z,7.27
2018-04-13T03:55:41.538Z,7.80
2018-04-13T03:58:07.912Z,6.90
2018-04-13T04:00:34.338Z,6.60
2018-04-13T04:03:00.735Z,8.87
2018-04-13T04:05:27.216Z,7.70
2018-04-13T04:07:53.524Z,8.00
2018-04-13T04:10:19.871Z,8.10
2018-04-13T04:12:46.373Z,8.17
2018-04-13T04:15:12.900Z,6.93
2018-04-13T04:17:39.264Z,8.57
2018-04-13T04:20:18.659Z,8.50
2018-04-13T04:22:57.260Z,7.47
2018-04-13T04:25:35.956Z,7.80
2018-04-13T04:28:03.277Z,7.03
2018-04-13T04:30:29.722Z,7.20
2018-04-13T04:32:56.084Z,6.70
2018-04-13T04:35:22.497Z,6.90
2018-04-13T04:37:48.926Z,6.23
2018-04-13T04:40:15.370Z,5.73
2018-04-13T04:42:41.672Z,6.27
2018-04-13T04:45:08.017Z,5.57
2018-04-13T04:47:34.509Z,5.80
2018-04-13T04:50:00.873Z,6.10
2018-04-13T04:52:27.289Z,6.27
2018-04-13T04:54:53.745Z,8.73
2018-04-13T04:57:20.232Z,9.03
2018-04-13T04:59:46.616Z,8.33
2018-04-13T05:02:13.029Z,9.20
2018-04-13T05:04:39.445Z,7.30
2018-04-13T05:07:05.835Z,8.53
2018-04-13T05:09:32.240Z,6.97
2018-04-13T05:11:58.586Z,7.40
2018-04-13T05:14:24.950Z,7.67
2018-04-13T05:16:51.405Z,6.63
2018-04-13T05:19:17.808Z,7.30
2018-04-13T05:21:44.142Z,7.23
2018-04-13T05:24:10.592Z,6.97
2018-04-13T05:26:37.100Z,6.50
2018-04-13T05:29:03.496Z,7.07
2018-04-13T05:31:29.856Z,6.33
2018-04-13T05:33:56.163Z,6.90
2018-04-13T05:36:22.616Z,6.10
2018-04-13T05:38:48.983Z,5.90
2018-04-13T05:41:15.472Z,6.37
2018-04-13T05:43:41.806Z,6.03
2018-04-13T05:46:08.266Z,6.23
2018-04-13T05:48:34.601Z,6.33
2018-04-13T05:51:01.086Z,6.47
2018-04-13T05:53:27.618Z,6.60
2018-04-13T05:55:54.071Z,6.10
2018-04-13T05:58:20.484Z,6.60
2018-04-13T06:00:46.878Z,6.73
2018-04-13T06:03:13.252Z,6.43
2018-04-13T06:05:39.741Z,7.20
2018-04-13T06:08:06.109Z,7.63
2018-04-13T06:10:32.465Z,6.90
2018-04-13T06:12:58.848Z,7.80
2018-04-13T06:15:25.304Z,7.90
2018-04-13T06:17:51.652Z,7.17
2018-04-13T06:20:18.017Z,6.87
2018-04-13T06:22:44.400Z,6.77
2018-04-13T06:25:10.779Z,6.97
2018-04-13T06:27:37.090Z,7.67
2018-04-13T06:30:03.518Z,7.33
2018-04-13T06:32:29.876Z,7.90
2018-04-13T06:34:56.214Z,7.70
2018-04-13T06:37:22.692Z,7.33
2018-04-13T06:39:49.128Z,7.23
2018-04-13T06:42:15.452Z,7.87
2018-04-13T06:44:41.820Z,7.57
2018-04-13T06:47:08.266Z,7.47
2018-04-13T06:49:34.712Z,8.43
2018-04-13T06:52:01.129Z,8.63
2018-04-13T06:54:27.501Z,7.20
2018-04-13T06:56:54.035Z,7.87
2018-04-13T06:59:20.586Z,7.80
2018-04-13T07:01:47.191Z,7.73
2018-04-13T07:04:13.775Z,7.67
2018-04-13T07:06:40.188Z,8.00
2018-04-13T07:09:06.517Z,7.50
2018-04-13T07:11:32.819Z,7.20
2018-04-13T07:13:59.214Z,6.87
2018-04-13T07:16:25.710Z,7.43
2018-04-13T07:18:52.058Z,6.97
2018-04-13T07:21:18.749Z,6.70
2018-04-13T07:23:45.088Z,7.07
2018-04-13T07:26:11.595Z,7.90
2018-04-13T07:28:37.983Z,6.83
2018-04-13T07:31:04.341Z,7.03
2018-04-13T07:33:30.682Z,6.50
2018-04-13T07:35:57.217Z,6.73
2018-04-13T07:38:23.583Z,7.23
2018-04-13T07:40:49.975Z,6.13
2018-04-13T07:43:16.471Z,6.93
2018-04-13T07:45:42.841Z,6.27
2018-04-13T07:48:09.155Z,5.90
2018-04-13T07:50:35.583Z,6.47
2018-04-13T07:53:01.986Z,6.70
2018-04-13T07:55:28.407Z,6.50
2018-04-13T07:57:54.771Z,6.43
2018-04-13T08:00:21.439Z,6.63
2018-04-13T08:02:47.946Z,6.43
2018-04-13T08:05:14.137Z,6.70
2018-04-13T08:07:40.588Z,7.00
2018-04-13T08:10:06.955Z,6.27
2018-04-13T08:12:33.669Z,5.80
2018-04-13T08:15:00.729Z,6.90
2018-04-13T08:17:27.094Z,6.57
2018-04-13T08:19:53.643Z,6.87
2018-04-13T08:22:19.985Z,6.80
2018-04-13T08:24:46.307Z,6.03
2018-04-13T08:27:12.823Z,6.37
2018-04-13T08:29:39.281Z,6.17
2018-04-13T08:32:05.567Z,8.50
2018-04-13T08:34:31.926Z,6.23
2018-04-13T08:36:58.276Z,6.93
2018-04-13T08:39:24.637Z,5.37
2018-04-13T08:41:51.016Z,6.37
2018-04-13T08:44:17.385Z,6.33
2018-04-13T08:46:43.937Z,5.83
2018-04-13T08:49:10.465Z,6.80
2018-04-13T08:51:36.663Z,6.20
2018-04-13T08:54:03.040Z,5.73
2018-04-13T08:56:29.532Z,5.90
2018-04-13T08:58:55.863Z,6.50
2018-04-13T09:01:22.245Z,5.73
2018-04-13T09:03:48.667Z,5.80
2018-04-13T09:06:15.147Z,5.37
2018-04-13T09:08:41.513Z,5.60
2018-04-13T09:11:07.948Z,4.87
2018-04-13T09:13:34.416Z,5.90
2018-04-13T09:16:00.966Z,5.93
2018-04-13T09:18:27.371Z,5.80
2018-04-13T09:20:53.788Z,5.80
2018-04-13T09:23:20.169Z,5.27
2018-04-13T09:25:46.610Z,4.67
2018-04-13T09:28:12.963Z,5.37
2018-04-13T09:30:39.320Z,5.60
2018-04-13T09:33:05.689Z,5.67
2018-04-13T09:35:32.069Z,5.33
2018-04-13T09:37:58.525Z,4.93
2018-04-13T09:40:25.206Z,4.53
2018-04-13T09:42:51.630Z,4.30
2018-04-13T09:45:18.032Z,4.67
2018-04-13T09:47:44.462Z,4.53
2018-04-13T09:50:10.837Z,4.73
2018-04-13T09:52:37.193Z,4.57
2018-04-13T09:55:03.690Z,5.07
2018-04-13T09:57:30.218Z,4.27
2018-04-13T09:59:56.621Z,4.77
2018-04-13T10:02:25.101Z,4.27
2018-04-13T10:04:55.482Z,4.90
2018-04-13T10:07:22.776Z,5.47
2018-04-13T10:09:49.268Z,4.87
2018-04-13T10:12:15.662Z,4.47
2018-04-13T10:14:42.334Z,4.93
2018-04-13T10:17:09.003Z,4.80
2018-04-13T10:19:35.366Z,4.50
2018-04-13T10:22:01.720Z,4.47
2018-04-13T10:24:28.095Z,5.00
2018-04-13T10:26:54.559Z,4.30
2018-04-13T10:29:20.962Z,4.90
2018-04-13T10:31:47.359Z,5.67
2018-04-13T10:34:13.869Z,4.73
2018-04-13T10:36:40.388Z,4.37
2018-04-13T10:39:06.760Z,4.67
2018-04-13T10:41:33.127Z,5.67
2018-04-13T10:43:59.487Z,4.83
2018-04-13T10:46:26.065Z,5.47
2018-04-13T10:48:52.565Z,5.00
2018-04-13T10:51:18.916Z,4.97
2018-04-13T10:53:45.383Z,5.37
2018-04-13T10:56:11.805Z,4.67
2018-04-13T10:58:38.223Z,4.87
2018-04-13T11:01:04.603Z,5.17
2018-04-13T11:03:31.357Z,5.40
2018-04-13T11:05:57.841Z,5.50
2018-04-13T11:08:24.243Z,5.17
2018-04-13T11:10:50.624Z,5.23
2018-04-13T11:13:16.987Z,4.57
2018-04-13T11:15:43.619Z,5.37
2018-04-13T11:18:09.972Z,4.30
2018-04-13T11:20:36.337Z,5.73
2018-04-13T11:23:02.772Z,4.73
2018-04-13T11:25:29.107Z,4.67
2018-04-13T11:27:55.579Z,5.23
2018-04-13T11:30:22.014Z,4.93
2018-04-13T11:32:48.612Z,5.80
2018-04-13T11:35:14.976Z,5.40
2018-04-13T11:37:41.414Z,5.70
2018-04-13T11:40:07.774Z,5.00
2018-04-13T11:42:34.148Z,5.25
2018-04-13T11:45:00.520Z,5.50
2018-04-13T11:47:27.012Z,4.80
2018-04-13T11:49:53.688Z,5.17
2018-04-13T11:52:20.120Z,5.67
2018-04-13T11:54:46.628Z,5.53
2018-04-13T11:57:13.116Z,5.50
2018-04-13T11:59:40.166Z,5.63
2018-04-13T12:02:06.670Z,6.33
2018-04-13T12:04:33.083Z,5.60
2018-04-13T12:06:59.743Z,5.37
2018-04-13T12:09:26.172Z,5.97
2018-04-13T12:11:52.560Z,5.67
2018-04-13T12:14:19.000Z,5.73
2018-04-13T12:16:45.427Z,6.27
2018-04-13T12:19:12.427Z,5.63
2018-04-13T12:21:39.183Z,5.87
2018-04-13T12:24:05.924Z,6.77
2018-04-13T12:26:32.566Z,6.37
2018-04-13T12:28:59.349Z,7.37
2018-04-13T12:31:26.415Z,6.97
2018-04-13T12:33:52.845Z,6.00
2018-04-13T12:36:19.506Z,6.17
2018-04-13T12:38:45.957Z,6.30
2018-04-13T12:41:12.328Z,6.57
2018-04-13T12:43:38.748Z,6.63
2018-04-13T12:46:05.182Z,5.53
2018-04-13T12:48:31.511Z,6.30
2018-04-13T12:50:58.031Z,7.07
2018-04-13T12:53:24.401Z,5.60
2018-04-13T12:55:51.197Z,5.97
2018-04-13T12:58:17.803Z,5.27
2018-04-13T13:00:44.287Z,5.30
2018-04-13T13:03:10.651Z,5.80
2018-04-13T13:05:37.107Z,6.77
2018-04-13T13:08:03.532Z,5.77
2018-04-13T13:10:30.042Z,5.37
2018-04-13T13:12:56.459Z,5.97
2018-04-13T13:15:22.839Z,5.93
2018-04-13T13:17:49.295Z,6.07
2018-04-13T13:20:15.914Z,5.17
2018-04-13T13:22:42.645Z,4.97
2018-04-13T13:25:09.228Z,4.63
2018-04-13T13:27:35.869Z,6.00
2018-04-13T13:30:02.413Z,5.23
2018-04-13T13:32:29.083Z,4.87
2018-04-13T13:34:55.843Z,4.13
2018-04-13T13:37:22.360Z,5.40
2018-04-13T13:39:48.972Z,6.10
2018-04-13T13:42:16.059Z,5.43
2018-04-13T13:44:42.481Z,4.70
2018-04-13T13:47:09.010Z,5.20
2018-04-13T13:49:35.556Z,6.10
2018-04-13T13:52:02.132Z,4.90
2018-04-13T13:54:28.561Z,5.00
2018-04-13T13:56:55.511Z,5.20
2018-04-13T13:59:21.977Z,5.37
2018-04-13T14:01:48.374Z,5.20
2018-04-13T14:04:15.771Z,5.30
2018-04-13T14:06:42.222Z,5.63
2018-04-13T14:09:08.650Z,5.40
2018-04-13T14:11:35.350Z,5.77
2018-04-13T14:14:01.856Z,4.77
2018-04-13T14:16:28.456Z,5.07
2018-04-13T14:18:54.946Z,6.30
2018-04-13T14:21:21.437Z,5.20
2018-04-13T14:23:47.947Z,6.47
2018-04-13T14:26:14.625Z,5.50
2018-04-13T14:28:41.272Z,5.40
2018-04-13T14:31:08.215Z,5.43
2018-04-13T14:33:34.816Z,5.23
2018-04-13T14:36:01.416Z,5.60
2018-04-13T14:38:28.012Z,5.03
2018-04-13T14:40:54.616Z,5.90
2018-04-13T14:43:21.183Z,5.33
2018-04-13T14:45:47.805Z,5.47
2018-04-13T14:48:14.482Z,4.93
2018-04-13T14:50:41.174Z,5.73
2018-04-13T14:53:07.903Z,6.23
2018-04-13T14:55:34.719Z,5.27
2018-04-13T14:58:01.491Z,5.23
2018-04-13T15:00:28.060Z,6.10
2018-04-13T15:02:54.666Z,5.27
2018-04-13T15:05:21.409Z,5.60
2018-04-13T15:07:48.079Z,5.63
2018-04-13T15:10:14.873Z,5.37
2018-04-13T15:12:41.600Z,5.67
2018-04-13T15:15:08.360Z,5.53
2018-04-13T15:17:35.214Z,5.10
2018-04-13T15:20:01.935Z,4.40
2018-04-13T15:22:28.674Z,10.53
2018-04-13T15:24:55.656Z,4.90
2018-04-13T15:27:22.124Z,5.40
2018-04-13T15:29:48.606Z,5.37
2018-04-13T15:32:15.140Z,4.83
2018-04-13T15:34:41.487Z,5.17
2018-04-13T15:37:07.911Z,4.93
2018-04-13T15:39:34.279Z,5.33
2018-04-13T15:42:00.655Z,5.53
2018-04-13T15:44:27.024Z,5.67
2018-04-13T15:46:54.361Z,4.67
2018-04-13T15:49:21.856Z,5.47
2018-04-13T15:51:48.867Z,5.33
2018-04-13T15:54:15.604Z,6.00
2018-04-13T15:56:42.163Z,6.20
2018-04-13T15:59:08.590Z,5.67
2018-04-13T16:01:35.024Z,5.23
2018-04-13T16:04:01.711Z,5.53
2018-04-13T16:06:28.198Z,5.80
2018-04-13T16:08:54.600Z,5.63
2018-04-13T16:11:21.057Z,4.93
2018-04-13T16:13:47.677Z,5.20
2018-04-13T16:16:14.206Z,5.57
2018-04-13T16:18:40.625Z,5.97
2018-04-13T16:21:07.365Z,6.20
2018-04-13T16:23:33.966Z,5.47
2018-04-13T16:26:00.450Z,5.27
2018-04-13T16:28:26.889Z,5.40
2018-04-13T16:30:53.608Z,5.30
2018-04-13T16:33:20.184Z,5.70
2018-04-13T16:35:47.115Z,5.43
2018-04-13T16:38:14.347Z,5.30
2018-04-13T16:40:42.021Z,5.20
2018-04-13T16:43:08.793Z,6.53
2018-04-13T16:45:38.176Z,4.83
2018-04-13T16:48:06.562Z,5.57
2018-04-13T16:50:35.369Z,6.93
2018-04-13T16:53:02.500Z,5.70
2018-04-13T16:55:29.162Z,5.73
2018-04-13T16:57:57.329Z,4.80
2018-04-13T17:00:23.723Z,5.83
2018-04-13T17:02:51.484Z,6.43
2018-04-13T17:05:18.208Z,4.80
2018-04-13T17:07:44.993Z,5.77
2018-04-13T17:10:13.271Z,5.40
2018-04-13T17:12:40.115Z,5.30
2018-04-13T17:15:06.752Z,5.33
2018-04-13T17:17:33.856Z,6.80
2018-04-13T17:20:00.837Z,5.53
2018-04-13T17:22:27.981Z,5.87
2018-04-13T17:24:54.448Z,5.70
2018-04-13T17:27:21.558Z,5.10
2018-04-13T17:29:48.405Z,5.70
2018-04-13T17:32:15.031Z,6.10
2018-04-13T17:34:41.579Z,5.43
2018-04-13T17:37:08.330Z,5.43
2018-04-13T17:39:34.965Z,5.50
2018-04-13T17:42:01.675Z,5.00
2018-04-13T17:44:28.077Z,5.20
2018-04-13T17:46:54.955Z,5.73
2018-04-13T17:49:21.638Z,4.83
2018-04-13T17:51:48.643Z,4.80
2018-04-13T17:54:16.056Z,6.20
2018-04-13T17:56:43.099Z,5.27
2018-04-13T17:59:10.843Z,5.77
2018-04-13T18:01:38.134Z,6.40
2018-04-13T18:04:05.080Z,5.50
2018-04-13T18:06:33.245Z,7.00
2018-04-13T18:09:00.060Z,5.93
2018-04-13T18:11:27.192Z,6.03
2018-04-13T18:13:54.154Z,5.73
2018-04-13T18:16:22.146Z,5.93
2018-04-13T18:18:50.671Z,6.60
2018-04-13T18:21:18.569Z,6.60
2018-04-13T18:23:46.470Z,5.20
2018-04-13T18:26:12.993Z,6.60
2018-04-13T18:28:39.554Z,8.00
2018-04-13T18:31:06.018Z,5.53
2018-04-13T18:33:33.240Z,6.90
2018-04-13T18:35:59.967Z,7.50
2018-04-13T18:38:26.963Z,7.33
2018-04-13T18:40:55.846Z,5.30
2018-04-13T18:43:22.381Z,6.10
2018-04-13T18:45:48.985Z,7.13
2018-04-13T18:48:16.569Z,6.47
2018-04-13T18:50:43.280Z,6.37
2018-04-13T18:53:11.610Z,6.63
2018-04-13T18:55:38.266Z,7.53
2018-04-13T18:58:05.154Z,7.67
2018-04-13T19:00:31.888Z,6.27
2018-04-13T19:02:59.591Z,7.53
2018-04-13T19:05:27.120Z,6.33
2018-04-13T19:07:55.147Z,7.10
2018-04-13T19:10:23.191Z,8.10
2018-04-13T19:12:50.973Z,6.67
2018-04-13T19:15:18.391Z,6.13
2018-04-13T19:17:46.236Z,6.63
2018-04-13T19:20:13.324Z,5.93
2018-04-13T19:22:41.926Z,6.57
2018-04-13T19:25:11.138Z,6.10
2018-04-13T19:27:39.116Z,6.70
2018-04-13T19:30:07.438Z,6.67
2018-04-13T19:32:34.436Z,6.80
2018-04-13T19:35:01.785Z,6.70
2018-04-13T19:37:28.374Z,6.60
2018-04-13T19:39:55.368Z,6.63
2018-04-13T19:42:21.979Z,6.97
2018-04-13T19:44:48.591Z,7.23
2018-04-13T19:47:16.502Z,6.50
2018-04-13T19:49:43.485Z,7.17
2018-04-13T19:52:10.125Z,7.43
2018-04-13T19:54:36.681Z,7.60
2018-04-13T19:57:03.203Z,7.33
2018-04-13T19:59:29.952Z,6.17
2018-04-13T20:01:56.507Z,7.20
2018-04-13T20:04:24.281Z,6.90
2018-04-13T20:06:51.958Z,8.63
2018-04-13T20:09:19.630Z,7.93
2018-04-13T20:11:46.035Z,7.97
2018-04-13T20:14:23.849Z,6.90
2018-04-13T20:16:50.569Z,9.70
2018-04-13T20:19:17.317Z,7.43
2018-04-13T20:21:44.312Z,6.67
2018-04-13T20:24:10.732Z,6.83
2018-04-13T20:26:37.447Z,6.40
2018-04-13T20:29:04.640Z,7.20
2018-04-13T20:31:31.541Z,7.67
2018-04-13T20:33:57.966Z,6.90
2018-04-13T20:36:24.375Z,7.90
2018-04-13T20:38:51.050Z,6.37
2018-04-13T20:41:18.052Z,8.33
2018-04-13T20:43:44.590Z,7.73
2018-04-13T20:46:11.125Z,7.50
2018-04-13T20:48:37.517Z,7.70
2018-04-13T20:51:04.121Z,7.37
2018-04-13T20:53:30.568Z,7.90
2018-04-13T20:55:58.054Z,8.20
2018-04-13T20:58:24.691Z,7.50
2018-04-13T21:00:51.743Z,8.80
2018-04-13T21:03:18.807Z,7.73
2018-04-13T21:05:45.317Z,8.43
2018-04-13T21:08:11.748Z,8.57
2018-04-13T21:10:38.095Z,8.67
2018-04-13T21:13:04.490Z,8.10
2018-04-13T21:15:31.017Z,8.23
2018-04-13T21:17:57.479Z,8.10
2018-04-13T21:20:23.967Z,7.67
2018-04-13T21:22:50.381Z,8.23
2018-04-13T21:25:16.748Z,8.37
2018-04-13T21:27:43.133Z,9.13
2018-04-13T21:30:09.575Z,9.17
2018-04-13T21:32:35.934Z,8.90
2018-04-13T21:35:02.356Z,8.93
2018-04-13T21:37:28.893Z,9.03
2018-04-13T21:39:55.231Z,8.93
2018-04-13T21:42:21.590Z,8.73
2018-04-13T21:44:47.999Z,9.60
2018-04-13T21:47:14.565Z,10.00
2018-04-13T21:49:40.904Z,8.60
2018-04-13T21:52:07.360Z,9.20
2018-04-13T21:54:33.722Z,9.20
2018-04-13T21:57:00.169Z,8.90
2018-04-13T21:59:26.533Z,9.40
2018-04-13T22:01:52.852Z,10.03
2018-04-13T22:04:19.270Z,10.00
2018-04-13T22:06:45.643Z,10.00
2018-04-13T22:09:11.997Z,9.23
2018-04-13T22:11:38.395Z,9.93
2018-04-13T22:14:17.085Z,9.67
2018-04-13T22:16:43.389Z,9.73
2018-04-13T22:19:09.863Z,9.33
2018-04-13T22:21:36.287Z,9.53
2018-04-13T22:24:02.626Z,8.77
2018-04-13T22:26:29.024Z,8.83
2018-04-13T22:28:55.520Z,8.83
2018-04-13T22:31:21.851Z,9.10
2018-04-13T22:33:48.262Z,8.80
2018-04-13T22:36:14.685Z,9.93
2018-04-13T22:38:41.066Z,9.00
2018-04-13T22:41:07.432Z,10.47
2018-04-13T22:43:33.840Z,8.97
2018-04-13T22:46:00.189Z,9.50
2018-04-13T22:48:26.596Z,9.97
2018-04-13T22:50:52.957Z,10.80
2018-04-13T22:53:19.306Z,10.03
2018-04-13T22:55:45.732Z,9.90
2018-04-13T22:58:12.189Z,11.07
2018-04-13T23:00:38.570Z,9.87
2018-04-13T23:03:04.963Z,10.03
2018-04-13T23:05:31.340Z,9.87
2018-04-13T23:07:57.772Z,9.77
2018-04-13T23:10:24.694Z,10.57
2018-04-13T23:12:51.118Z,10.60
2018-04-13T23:15:17.492Z,9.73
2018-04-13T23:17:43.884Z,11.43
2018-04-13T23:20:10.292Z,10.83
2018-04-13T23:22:38.273Z,10.53
2018-04-13T23:25:04.919Z,10.20
2018-04-13T23:27:31.369Z,11.50
2018-04-13T23:29:57.793Z,10.53
2018-04-13T23:32:24.177Z,9.63
2018-04-13T23:34:50.634Z,10.77
2018-04-13T23:37:17.056Z,9.90
2018-04-13T23:39:43.405Z,9.13
2018-04-13T23:42:09.726Z,10.83
2018-04-13T23:44:36.118Z,10.60
2018-04-13T23:47:02.469Z,10.17
2018-04-13T23:49:28.895Z,10.33
2018-04-13T23:51:55.225Z,10.80
2018-04-13T23:54:21.697Z,10.43
2018-04-13T23:56:48.025Z,11.23
2018-04-13T23:59:14.490Z,10.57
